Time;durP1;ratioP1;P1;durP2;ratioP2;P2;SDS_P1;SDS_P2;PMS_P1;PMS_P2;Temp;Humidity;BMP_temperature;BMP_pressure;BME280_temperature;BME280_humidity;BME280_pressure;Samples;Min_cycle;Max_cycle;Signal;HPM_P1;HPM_P2
2023/03/30 00:01:36;;;;;;;;;;;;;;;-144.99;100.00;52382.88;5016922;28;19961;-69
2023/03/30 00:04:03;;;;;;;;;;;;;;;-144.99;100.00;52382.88;5015937;28;19965;-69
2023/03/30 00:06:29;;;;;;;;;;;;;;;-144.99;100.00;52391.03;5018275;28;20120;-69
2023/03/30 00:08:59;;;;;;;;;;;;;;;-144.99;100.00;52391.03;5010497;28;20394;-70
2023/03/30 00:11:26;;;;;;;;;;;;;;;-144.99;100.00;52415.47;5015183;28;20027;-69
2023/03/30 00:13:53;;;;;;;;;;;;;;;-144.99;100.00;52419.56;5013082;28;20012;-69
2023/03/30 00:16:20;;;;;;;;;;;;;;;-144.99;100.00;52407.31;5014791;28;19980;-70
2023/03/30 00:18:47;;;;;;;;;;;;;;;-144.99;100.00;52395.09;5018924;28;19965;-70
2023/03/30 00:21:16;;;;;;;;;;;;;;;-144.99;100.00;52413.44;5017015;28;19936;-69
2023/03/30 00:23:45;;;;;;;;;;;;;;;-144.99;100.00;52374.72;5015857;28;20330;-69
2023/03/30 00:26:13;;;;;;;;;;;;;;;-144.99;100.00;52364.53;5010430;28;19929;-69
2023/03/30 00:28:40;;;;;;;;;;;;;;;-144.99;100.00;52401.22;5017483;28;19931;-68
2023/03/30 00:31:06;;;;;;;;;;;;;;;-144.99;100.00;52386.94;5011440;28;20027;-69
2023/03/30 00:33:33;;;;;;;;;;;;;;;-144.99;100.00;52395.09;5019349;28;19964;-69
2023/03/30 00:35:59;;;;;;;;;;;;;;;-144.99;100.00;52382.88;5011701;28;20394;-69
2023/03/30 00:38:26;;;;;;;;;;;;;;;-144.99;100.00;52391.03;5019628;28;19960;-69
2023/03/30 00:40:53;;;;;;;;;;;;;;;-144.99;100.00;52435.88;5014763;28;19960;-69
2023/03/30 00:43:21;;;;;;;;;;;;;;;-144.99;100.00;52354.34;5012722;28;20359;-69
2023/03/30 00:45:48;;;;;;;;;;;;;;;-144.99;100.00;52388.97;5013352;28;20496;-69
2023/03/30 00:48:16;;;;;;;;;;;;;;;-144.99;100.00;52362.50;5013326;28;20140;-69
2023/03/30 00:50:44;;;;;;;;;;;;;;;-144.99;100.00;52407.31;5014593;28;20295;-69
2023/03/30 00:53:15;;;;;;;;;;;;;;;-144.99;100.00;52382.88;5016002;28;20016;-70
2023/03/30 00:55:42;;;;;;;;;;;;;;;-144.99;100.00;52366.56;5014932;28;19931;-70
2023/03/30 00:58:09;;;;;;;;;;;;;;;-144.99;100.00;52366.56;5012920;28;19983;-70
2023/03/30 01:00:38;;;;;;;;;;;;;;;-144.99;100.00;52362.50;5015116;28;19925;-69
2023/03/30 01:03:08;;;;;;;;;;;;;;;-144.99;100.00;52399.19;5014457;28;19960;-70
2023/03/30 01:05:36;;;;;;;;;;;;;;;-144.99;100.00;52374.72;5015108;28;19925;-69
2023/03/30 01:08:06;;;;;;;;;;;;;;;-144.99;100.00;52386.94;5014978;28;20156;-70
2023/03/30 01:10:32;;;;;;;;;;;;;;;-144.99;100.00;52362.50;5015436;28;20012;-68
2023/03/30 01:12:59;;;;;;;;;;;;;;;-144.99;100.00;52366.56;5016875;28;20020;-68
2023/03/30 01:15:27;;;;;;;;;;;;;;;-144.99;100.00;52378.78;5010305;28;19941;-68
2023/03/30 01:18:07;;;;;;;;;;;;;;;-144.99;100.00;52366.56;5016765;28;19934;-70
2023/03/30 01:20:48;;;;;;;;;;;;;;;-144.99;100.00;52338.03;5016304;28;19935;-70
2023/03/30 01:23:29;;;;;;;;;;;;;;;-144.99;100.00;52362.50;5010627;28;20176;-67
2023/03/30 01:26:12;;;;;;;;;;;;;;;-144.99;100.00;52395.09;5009770;28;20444;-66
2023/03/30 01:28:43;;;;;;;;;;;;;;;-144.99;100.00;52374.72;5010999;28;20023;-65
2023/03/30 01:31:26;;;;;;;;;;;;;;;-144.99;100.00;52370.63;5013544;28;19991;-65
2023/03/30 01:34:12;;;;;;;;;;;;;;;-144.99;100.00;52399.19;5007791;28;19941;-65
2023/03/30 01:37:09;;;;;;;;;;;;;;;-144.99;100.00;52397.13;5013187;28;20366;-65
2023/03/30 01:39:41;;;;;;;;;;;;;;;-144.99;100.00;52378.78;4969076;28;19930;-65
2023/03/30 01:42:13;;;;;;;;;;;;;;;-144.99;100.00;52354.34;5010012;28;19929;-66
2023/03/30 01:44:43;;;;;;;;;;;;;;;-144.99;100.00;52364.53;5016624;28;19936;-67
2023/03/30 01:47:15;;;;;;;;;;;;;;;-144.99;100.00;52419.56;5012666;28;19972;-67
2023/03/30 01:49:45;;;;;;;;;;;;;;;-144.99;100.00;52403.25;5016553;28;19961;-68
2023/03/30 01:52:15;;;;;;;;;;;;;;;-144.99;100.00;52403.25;5017017;28;19936;-69
2023/03/30 01:54:45;;;;;;;;;;;;;;;-144.99;100.00;52350.25;5017071;28;19929;-70
2023/03/30 01:57:14;;;;;;;;;;;;;;;-144.99;100.00;52366.56;5016706;28;19973;-69
2023/03/30 01:59:44;;;;;;;;;;;;;;;-144.99;100.00;52395.09;5020945;28;19979;-69
2023/03/30 02:02:12;;;;;;;;;;;;;;;-144.99;100.00;52435.88;5017122;28;19960;-70
2023/03/30 02:04:41;;;;;;;;;;;;;;;-144.99;100.00;52358.41;5016827;28;19925;-69
2023/03/30 02:07:10;;;;;;;;;;;;;;;-144.99;100.00;52366.56;5010448;28;19969;-69
2023/03/30 02:09:38;;;;;;;;;;;;;;;-144.99;100.00;52378.78;5018406;23;19969;-68
2023/03/30 02:12:07;;;;;;;;;;;;;;;-144.99;100.00;52395.09;4986582;28;20025;-69
2023/03/30 02:14:35;;;;;;;;;;;;;;;-144.99;100.00;52362.50;4986875;28;20096;-69
2023/03/30 02:17:05;;;;;;;;;;;;;;;-144.99;100.00;52382.88;4987124;28;20298;-68
2023/03/30 02:19:32;;;;;;;;;;;;;;;-144.99;100.00;52415.47;4987748;28;20028;-68
2023/03/30 02:22:00;;;;;;;;;;;;;;;-144.99;100.00;52384.91;4987729;28;19949;-68
2023/03/30 02:24:30;;;;;;;;;;;;;;;-144.99;100.00;52397.13;4984592;28;20213;-68
2023/03/30 02:26:58;;;;;;;;;;;;;;;-144.99;100.00;52391.03;4981814;28;20415;-69
2023/03/30 02:29:26;;;;;;;;;;;;;;;-144.99;100.00;52386.94;4991576;28;20059;-69
2023/03/30 02:31:54;;;;;;;;;;;;;;;-144.99;100.00;52358.41;4987094;28;19980;-69
2023/03/30 02:34:27;;;;;;;;;;;;;;;-144.99;100.00;52354.34;4986730;28;20465;-69
2023/03/30 02:37:06;;;;;;;;;;;;;;;-144.99;100.00;52378.78;4986436;28;19934;-69
2023/03/30 02:39:40;;;;;;;;;;;;;;;-144.99;100.00;52397.13;4988361;28;20370;-69
2023/03/30 02:42:29;;;;;;;;;;;;;;;-144.99;100.00;52382.88;4985912;28;20328;-69
2023/03/30 02:45:06;;;;;;;;;;;;;;;-144.99;100.00;52395.09;4986315;28;19937;-71
2023/03/30 02:47:37;;;;;;;;;;;;;;;-144.99;100.00;52386.94;4986900;28;20399;-73
2023/03/30 02:50:10;;;;;;;;;;;;;;;-144.99;100.00;52407.31;4987438;28;19976;-71
2023/03/30 02:52:42;;;;;;;;;;;;;;;-144.99;100.00;52386.94;4982814;28;19925;-71
2023/03/30 02:55:15;;;;;;;;;;;;;;;-144.99;100.00;52421.59;4990850;28;20346;-69
2023/03/30 02:57:46;;;;;;;;;;;;;;;-144.99;100.00;52395.09;4987094;28;20344;-69
2023/03/30 03:00:16;;;;;;;;;;;;;;;-144.99;100.00;52358.41;4987535;28;20422;-67
2023/03/30 03:02:46;;;;;;;;;;;;;;;-144.99;100.00;52431.78;4986922;28;19930;-69
2023/03/30 03:05:14;;;;;;;;;;;;;;;-144.99;100.00;52399.19;4986847;28;19926;-69
2023/03/30 03:07:40;;;;;;;;;;;;;;;-144.99;100.00;52370.63;4986041;28;20401;-69
2023/03/30 03:10:07;;;;;;;;;;;;;;;-144.99;100.00;52399.19;4923637;28;1835121;-69
2023/03/30 03:12:34;;;;;;;;;;;;;;;-144.99;100.00;52407.31;4988032;28;19926;-71
2023/03/30 03:15:02;;;;;;;;;;;;;;;-144.99;100.00;52354.34;4982419;28;20513;-70
2023/03/30 03:17:33;;;;;;;;;;;;;;;-144.99;100.00;52403.25;4975923;28;20414;-68
2023/03/30 03:19:59;;;;;;;;;;;;;;;-144.99;100.00;52403.25;4980998;28;20639;-67
2023/03/30 03:22:26;;;;;;;;;;;;;;;-144.99;100.00;52378.78;4978195;28;19936;-68
2023/03/30 03:24:52;;;;;;;;;;;;;;;-144.99;100.00;52370.63;4980081;28;20021;-67
2023/03/30 03:27:19;;;;;;;;;;;;;;;-144.99;100.00;52378.78;4982164;28;19941;-69
2023/03/30 03:29:46;;;;;;;;;;;;;;;-144.99;100.00;52399.19;4980070;28;19934;-68
2023/03/30 03:32:12;;;;;;;;;;;;;;;-144.99;100.00;52382.88;4981555;28;19934;-68
2023/03/30 03:34:43;;;;;;;;;;;;;;;-144.99;100.00;52391.03;4981955;28;19934;-68
2023/03/30 03:37:10;;;;;;;;;;;;;;;-144.99;100.00;52403.25;4980267;28;19933;-67
2023/03/30 03:39:37;;;;;;;;;;;;;;;-144.99;100.00;52419.56;4980503;28;19926;-67
2023/03/30 03:42:03;;;;;;;;;;;;;;;-144.99;100.00;52395.09;4980608;28;19933;-71
2023/03/30 03:44:30;;;;;;;;;;;;;;;-144.99;100.00;52395.09;4980798;28;20045;-68
2023/03/30 03:46:56;;;;;;;;;;;;;;;-144.99;100.00;52415.47;4981268;28;20450;-70
2023/03/30 03:49:23;;;;;;;;;;;;;;;-144.99;100.00;52382.88;4979493;28;20371;-69
2023/03/30 03:51:52;;;;;;;;;;;;;;;-144.99;100.00;52352.28;4983694;28;20020;-71
2023/03/30 03:54:18;;;;;;;;;;;;;;;-144.99;100.00;52415.47;4982061;28;20382;-70
2023/03/30 03:56:45;;;;;;;;;;;;;;;-144.99;100.00;52395.09;4980179;28;19980;-67
2023/03/30 03:59:11;;;;;;;;;;;;;;;-144.99;100.00;52435.88;4979742;28;20947;-66
2023/03/30 04:01:38;;;;;;;;;;;;;;;-144.99;100.00;52391.03;4980042;28;19926;-65
2023/03/30 04:04:04;;;;;;;;;;;;;;;-144.99;100.00;52403.25;4979546;28;19977;-65
2023/03/30 04:06:31;;;;;;;;;;;;;;;-144.99;100.00;52427.72;4982655;28;20000;-65
2023/03/30 04:09:00;;;;;;;;;;;;;;;-144.99;100.00;52409.38;4980248;28;20529;-66
2023/03/30 04:11:27;;;;;;;;;;;;;;;-144.99;100.00;52388.97;4981300;28;19957;-65
2023/03/30 04:13:53;;;;;;;;;;;;;;;-144.99;100.00;52407.31;4981037;28;20068;-66
2023/03/30 04:16:20;;;;;;;;;;;;;;;-144.99;100.00;52419.56;4962050;28;21491;-66
2023/03/30 04:18:46;;;;;;;;;;;;;;;-144.99;100.00;52415.47;4981273;28;19929;-66
2023/03/30 04:21:16;;;;;;;;;;;;;;;-144.99;100.00;52419.56;4982157;28;20287;-67
2023/03/30 04:23:44;;;;;;;;;;;;;;;-144.99;100.00;52427.72;4982856;28;19934;-67
2023/03/30 04:26:14;;;;;;;;;;;;;;;-144.99;100.00;52382.88;4983559;28;19933;-68
2023/03/30 04:28:41;;;;;;;;;;;;;;;-144.99;100.00;52382.88;4980265;28;19926;-69
2023/03/30 04:31:09;;;;;;;;;;;;;;;-144.99;100.00;52370.63;4980863;28;20075;-68
2023/03/30 04:33:37;;;;;;;;;;;;;;;-144.99;100.00;52395.09;4981668;28;19934;-67
2023/03/30 04:36:03;;;;;;;;;;;;;;;-144.99;100.00;52384.91;4992885;28;19930;-66
2023/03/30 04:38:30;;;;;;;;;;;;;;;-144.99;100.00;52350.25;4994353;28;19930;-68
2023/03/30 04:40:57;;;;;;;;;;;;;;;-144.99;100.00;52378.78;4992732;28;19969;-66
2023/03/30 04:43:25;;;;;;;;;;;;;;;-144.99;100.00;52419.56;4992719;28;19952;-67
2023/03/30 04:45:52;;;;;;;;;;;;;;;-144.99;100.00;52366.56;4993124;28;21498;-66
2023/03/30 04:48:20;;;;;;;;;;;;;;;-144.99;100.00;52407.31;4991105;28;19930;-68
2023/03/30 04:50:48;;;;;;;;;;;;;;;-144.99;100.00;52425.66;4991243;28;19933;-67
2023/03/30 04:53:15;;;;;;;;;;;;;;;-144.99;100.00;52415.47;4997666;28;19930;-67
2023/03/30 04:55:42;;;;;;;;;;;;;;;-144.99;100.00;52435.88;4993219;28;19936;-67
2023/03/30 04:58:11;;;;;;;;;;;;;;;-144.99;100.00;52378.78;4994956;28;19941;-67
2023/03/30 05:00:39;;;;;;;;;;;;;;;-144.99;100.00;52382.88;4996357;28;19941;-68
2023/03/30 05:03:05;;;;;;;;;;;;;;;-144.99;100.00;52425.66;4989630;28;19930;-67
2023/03/30 05:05:32;;;;;;;;;;;;;;;-144.99;100.00;52380.84;4981717;28;20387;-68
2023/03/30 05:07:59;;;;;;;;;;;;;;;-144.99;100.00;52395.09;4981774;28;20294;-69
2023/03/30 05:10:26;;;;;;;;;;;;;;;-144.99;100.00;52395.09;4980429;28;20065;-68
2023/03/30 05:12:53;;;;;;;;;;;;;;;-144.99;100.00;52411.41;4982026;28;19984;-68
2023/03/30 05:15:20;;;;;;;;;;;;;;;-144.99;100.00;52368.59;4979776;28;20836;-68
2023/03/30 05:17:48;;;;;;;;;;;;;;;-144.99;100.00;52388.97;4979768;28;19941;-69
2023/03/30 05:20:14;;;;;;;;;;;;;;;-144.99;100.00;52399.19;4979526;28;19961;-68
2023/03/30 05:22:41;;;;;;;;;;;;;;;-144.99;100.00;52403.25;4978998;28;19926;-68
2023/03/30 05:25:08;;;;;;;;;;;;;;;-144.99;100.00;52380.84;4980812;28;20031;-68
2023/03/30 05:27:35;;;;;;;;;;;;;;;-144.99;100.00;52417.53;4977462;28;19960;-68
2023/03/30 05:30:03;;;;;;;;;;;;;;;-144.99;100.00;52403.25;4634220;28;10000100;-67
2023/03/30 05:32:33;;;;;;;;;;;;;;;-144.99;100.00;52415.47;4978121;28;19934;-67
2023/03/30 05:35:01;;;;;;;;;;;;;;;-144.99;100.00;52407.31;4975016;28;20028;-67
2023/03/30 05:37:27;;;;;;;;;;;;;;;-144.99;100.00;52384.91;4974329;28;19951;-69
2023/03/30 05:39:54;;;;;;;;;;;;;;;-144.99;100.00;52378.78;4978037;28;19930;-70
2023/03/30 05:42:21;;;;;;;;;;;;;;;-144.99;100.00;52382.88;4976779;28;19933;-69
2023/03/30 05:44:47;;;;;;;;;;;;;;;-144.99;100.00;52427.72;4977422;28;19975;-68
2023/03/30 05:47:15;;;;;;;;;;;;;;;-144.99;100.00;52391.03;4972464;28;20060;-67
2023/03/30 05:49:41;;;;;;;;;;;;;;;-144.99;100.00;52391.03;4975571;28;19934;-67
2023/03/30 05:52:10;;;;;;;;;;;;;;;-144.99;100.00;52407.31;4975722;28;19973;-67
2023/03/30 05:54:36;;;;;;;;;;;;;;;-144.99;100.00;52415.47;4974732;28;20036;-67
2023/03/30 05:57:04;;;;;;;;;;;;;;;-144.99;100.00;52391.03;4978015;28;20221;-66
2023/03/30 05:59:30;;;;;;;;;;;;;;;-144.99;100.00;52439.94;4974476;28;19934;-67
2023/03/30 06:01:57;;;;;;;;;;;;;;;-144.99;100.00;52366.56;4974741;28;20313;-66
2023/03/30 06:04:25;;;;;;;;;;;;;;;-144.99;100.00;52415.47;4976689;28;19933;-67
2023/03/30 06:06:52;;;;;;;;;;;;;;;-144.99;100.00;52382.88;4975874;28;20060;-67
2023/03/30 06:09:19;;;;;;;;;;;;;;;-144.99;100.00;52397.13;4976754;28;19929;-67
2023/03/30 06:11:46;;;;;;;;;;;;;;;-144.99;100.00;52386.94;4975568;28;19990;-67
2023/03/30 06:14:12;;;;;;;;;;;;;;;-144.99;100.00;52362.50;4975739;28;20407;-67
2023/03/30 06:16:39;;;;;;;;;;;;;;;-144.99;100.00;52382.88;4975574;28;19977;-67
2023/03/30 06:19:06;;;;;;;;;;;;;;;-144.99;100.00;52370.63;4974610;28;20758;-67
2023/03/30 06:21:33;;;;;;;;;;;;;;;-144.99;100.00;52386.94;4976459;28;19957;-67
2023/03/30 06:24:00;;;;;;;;;;;;;;;-144.99;100.00;52407.31;4976424;28;20367;-67
2023/03/30 06:26:28;;;;;;;;;;;;;;;-144.99;100.00;52382.88;4975864;28;20338;-67
2023/03/30 06:28:55;;;;;;;;;;;;;;;-144.99;100.00;52401.22;4973517;28;19941;-68
2023/03/30 06:31:21;;;;;;;;;;;;;;;-144.99;100.00;52360.44;4974928;28;19930;-68
2023/03/30 06:33:49;;;;;;;;;;;;;;;-144.99;100.00;52297.25;4975347;28;19926;-68
2023/03/30 06:36:15;;;;;;;;;;;;;;;-144.99;100.00;52403.25;4973860;28;19942;-69
2023/03/30 06:38:42;;;;;;;;;;;;;;;-144.99;100.00;52374.72;4974215;28;19985;-69
2023/03/30 06:41:10;;;;;;;;;;;;;;;-144.99;100.00;52399.19;4973145;28;19933;-67
2023/03/30 06:43:39;;;;;;;;;;;;;;;-144.99;100.00;52391.03;4975905;28;20404;-69
2023/03/30 06:46:05;;;;;;;;;;;;;;;-144.99;100.00;52366.56;4975361;28;20449;-69
2023/03/30 06:48:32;;;;;;;;;;;;;;;-144.99;100.00;52374.72;4975075;28;20260;-69
2023/03/30 06:50:59;;;;;;;;;;;;;;;-144.99;100.00;52333.94;4975864;28;20020;-67
2023/03/30 06:53:25;;;;;;;;;;;;;;;-144.99;100.00;52395.09;4973247;28;19940;-67
2023/03/30 06:55:52;;;;;;;;;;;;;;;-144.99;100.00;52362.50;4974839;28;19961;-67
2023/03/30 06:58:19;;;;;;;;;;;;;;;-144.99;100.00;52350.25;4975045;28;20403;-67
2023/03/30 07:00:47;;;;;;;;;;;;;;;-144.99;100.00;52346.19;4978152;28;19981;-67
2023/03/30 07:03:15;;;;;;;;;;;;;;;-144.99;100.00;52350.25;4979217;28;19969;-70
2023/03/30 07:05:42;;;;;;;;;;;;;;;-144.99;100.00;52344.16;4978505;28;20046;-68
2023/03/30 07:08:08;;;;;;;;;;;;;;;-144.99;100.00;52374.72;4973021;28;20450;-68
2023/03/30 07:10:35;;;;;;;;;;;;;;;-144.99;100.00;52354.34;4972766;28;19934;-68
2023/03/30 07:13:02;;;;;;;;;;;;;;;-144.99;100.00;52329.88;4973955;28;20123;-70
2023/03/30 07:15:28;;;;;;;;;;;;;;;-144.99;100.00;52382.88;4971088;28;20468;-71
2023/03/30 07:17:56;;;;;;;;;;;;;;;-144.99;100.00;52354.34;4972211;28;20013;-70
2023/03/30 07:20:23;;;;;;;;;;;;;;;-144.99;100.00;52380.84;4970430;28;20004;-72
2023/03/30 07:22:49;;;;;;;;;;;;;;;-144.99;100.00;52340.06;4970182;28;19977;-71
2023/03/30 07:25:16;;;;;;;;;;;;;;;-144.99;100.00;52362.50;4972949;28;21796;-70
2023/03/30 07:27:42;;;;;;;;;;;;;;;-144.99;100.00;52366.56;4969508;28;20154;-72
2023/03/30 07:30:10;;;;;;;;;;;;;;;-144.99;100.00;52370.63;4970858;28;19980;-72
2023/03/30 07:32:37;;;;;;;;;;;;;;;-144.99;100.00;52386.94;4972531;28;19933;-69
2023/03/30 07:35:05;;;;;;;;;;;;;;;-144.99;100.00;52380.84;4973478;28;19933;-73
2023/03/30 07:37:32;;;;;;;;;;;;;;;-144.99;100.00;52384.91;4972780;28;20158;-72
2023/03/30 07:39:59;;;;;;;;;;;;;;;-144.99;100.00;52395.09;4972155;28;19993;-71
2023/03/30 07:42:26;;;;;;;;;;;;;;;-144.99;100.00;52344.16;4971030;28;20572;-71
2023/03/30 07:44:53;;;;;;;;;;;;;;;-144.99;100.00;52340.06;4975612;28;20019;-73
2023/03/30 07:47:19;;;;;;;;;;;;;;;-144.99;99.41;52342.09;4973220;28;20064;-72
2023/03/30 07:49:46;;;;;;;;;;;;;;;-144.99;98.16;52342.09;4972577;28;19941;-72
2023/03/30 07:52:14;;;;;;;;;;;;;;;-144.99;97.46;52313.56;4973216;28;20391;-72
2023/03/30 07:54:42;;;;;;;;;;;;;;;-144.99;97.02;52313.56;4970016;28;20012;-73
2023/03/30 07:57:09;;;;;;;;;;;;;;;-144.99;94.47;52346.19;4973343;28;20382;-73
2023/03/30 07:59:36;;;;;;;;;;;;;;;-144.99;93.64;52354.34;4976311;28;20381;-73
2023/03/30 08:02:03;;;;;;;;;;;;;;;-144.99;92.58;52358.41;4973962;28;19938;-74
2023/03/30 08:04:30;;;;;;;;;;;;;;;-144.99;92.79;52358.41;4971812;28;19937;-73
2023/03/30 08:06:57;;;;;;;;;;;;;;;-144.99;91.72;52358.41;4970601;28;19930;-73
2023/03/30 08:09:26;;;;;;;;;;;;;;;-144.99;92.40;52374.72;4971057;28;20031;-73
2023/03/30 08:11:52;;;;;;;;;;;;;;;-144.99;93.06;52372.69;4998111;22;19997;-66
2023/03/30 08:14:19;;;;;;;;;;;;;;;-144.99;92.72;52362.50;5005506;28;19941;-67
2023/03/30 08:16:46;;;;;;;;;;;;;;;-144.99;92.63;52386.94;5004079;28;19929;-67
2023/03/30 08:19:12;;;;;;;;;;;;;;;-144.99;93.01;52338.03;5006062;28;19933;-67
2023/03/30 08:21:39;;;;;;;;;;;;;;;-144.99;92.71;52362.50;4995914;28;21255;-67
2023/03/30 08:24:06;;;;;;;;;;;;;;;-144.99;92.48;52317.66;4994877;28;20023;-67
2023/03/30 08:26:35;;;;;;;;;;;;;;;-144.99;92.43;52313.56;4996986;28;19936;-69
2023/03/30 08:29:02;;;;;;;;;;;;;;;-144.99;92.82;52358.41;4994636;28;19940;-67
2023/03/30 08:31:31;;;;;;;;;;;;;;;-144.99;92.53;52348.22;5000147;28;19930;-67
2023/03/30 08:33:58;;;;;;;;;;;;;;;-144.99;92.94;52342.09;4993270;28;20020;-66
2023/03/30 08:36:25;;;;;;;;;;;;;;;-144.99;93.01;52358.41;4993647;28;21473;-67
2023/03/30 08:38:51;;;;;;;;;;;;;;;-144.99;92.17;52325.81;4998243;28;19937;-67
2023/03/30 08:41:40;;;;;;;;;;;;;;;-144.99;91.95;52342.09;4993951;28;20052;-67
2023/03/30 08:44:12;;;;;;;;;;;;;;;-144.99;91.29;52342.09;5000175;28;19930;-67
2023/03/30 08:46:41;;;;;;;;;;;;;;;-144.99;91.02;52325.81;5000415;28;20465;-67
2023/03/30 08:49:12;;;;;;;;;;;;;;;-144.99;89.77;52321.72;5000580;28;20330;-66
2023/03/30 08:51:41;;;;;;;;;;;;;;;-144.99;89.11;52307.47;5001922;28;20348;-67
2023/03/30 08:54:12;;;;;;;;;;;;;;;-144.99;87.02;52309.50;5005918;28;20343;-67
2023/03/30 08:56:40;;;;;;;;;;;;;;;-144.99;85.24;52276.88;5000787;28;19929;-66
2023/03/30 08:59:16;;;;;;;;;;;;;;;-144.99;83.91;52283.00;5007800;28;20383;-66
2023/03/30 09:01:45;;;;;;;;;;;;;;;-144.99;83.36;52313.56;5000275;28;20369;-67
2023/03/30 09:04:17;;;;;;;;;;;;;;;-144.99;83.49;52268.72;5001103;28;19929;-67
2023/03/30 09:06:46;;;;;;;;;;;;;;;-144.99;83.29;52313.56;4992628;28;20100;-66
2023/03/30 09:09:13;;;;;;;;;;;;;;;-144.99;84.12;52317.66;4991936;28;19929;-67
2023/03/30 09:11:40;;;;;;;;;;;;;;;-144.99;84.06;52378.78;4995448;28;20454;-68
2023/03/30 09:14:10;;;;;;;;;;;;;;;-144.99;85.28;52350.25;4996056;28;19934;-67
2023/03/30 09:16:39;;;;;;;;;;;;;;;-144.99;85.96;52358.41;4994492;28;20405;-66
2023/03/30 09:19:11;;;;;;;;;;;;;;;-144.99;86.07;52358.41;4993979;28;20027;-66
2023/03/30 09:21:38;;;;;;;;;;;;;;;-144.99;86.30;52346.19;4992889;28;20263;-67
2023/03/30 09:24:11;;;;;;;;;;;;;;;-144.99;86.05;52329.88;4991730;28;19956;-67
2023/03/30 09:26:43;;;;;;;;;;;;;;;-144.99;86.02;52340.06;4993919;28;19933;-67
2023/03/30 09:29:12;;;;;;;;;;;;;;;-144.99;85.83;52283.00;4992280;28;19987;-65
2023/03/30 09:31:43;;;;;;;;;;;;;;;-144.99;85.33;52323.75;4993673;28;20479;-66
2023/03/30 09:34:14;;;;;;;;;;;;;;;-144.99;86.04;52354.34;4992707;28;19933;-67
2023/03/30 09:36:45;;;;;;;;;;;;;;;-144.99;87.86;52382.88;4992887;28;20414;-67
2023/03/30 09:39:17;;;;;;;;;;;;;;;-144.99;91.63;52403.25;4994095;28;20028;-68
2023/03/30 09:41:54;;;;;;;;;;;;;;;-144.99;93.78;52358.41;4994915;28;20048;-67
2023/03/30 09:44:25;;;;;;;;;;;;;;;-144.99;96.02;52372.69;4994759;28;19928;-68
2023/03/30 09:46:57;;;;;;;;;;;;;;;-144.99;97.90;52362.50;4992412;28;19988;-68
2023/03/30 09:49:26;;;;;;;;;;;;;;;-144.99;98.89;52370.63;4994807;28;19934;-68
2023/03/30 09:51:55;;;;;;;;;;;;;;;-144.99;99.93;52358.41;4996240;28;19961;-67
2023/03/30 09:54:22;;;;;;;;;;;;;;;-144.99;100.00;52342.09;4996533;28;20022;-67
2023/03/30 09:56:50;;;;;;;;;;;;;;;-144.99;100.00;52366.56;5005691;28;19952;-68
2023/03/30 09:59:21;;;;;;;;;;;;;;;-144.99;100.00;52399.19;4999122;28;19932;-68
2023/03/30 10:01:47;;;;;;;;;;;;;;;-144.99;100.00;52352.28;4993500;28;21033;-67
2023/03/30 10:04:17;;;;;;;;;;;;;;;-144.99;100.00;52386.94;4991989;28;19980;-66
2023/03/30 10:06:46;;;;;;;;;;;;;;;-144.99;100.00;52354.34;4991423;28;20369;-68
2023/03/30 10:09:13;;;;;;;;;;;;;;;-144.99;100.00;52346.19;4993795;28;19930;-68
2023/03/30 10:11:41;;;;;;;;;;;;;;;-144.99;100.00;52362.50;4992934;28;20388;-68
2023/03/30 10:14:19;;;;;;;;;;;;;;;-144.99;99.19;52358.41;4992895;28;20003;-69
2023/03/30 10:16:46;;;;;;;;;;;;;;;-144.99;95.95;52317.66;4995850;28;19961;-67
2023/03/30 10:19:18;;;;;;;;;;;;;;;-144.99;95.16;52293.19;4996185;28;19956;-67
2023/03/30 10:21:45;;;;;;;;;;;;;;;-144.99;90.76;52297.25;4997000;28;19980;-67
2023/03/30 10:24:20;;;;;;;;;;;;;;;-144.99;89.41;52264.66;4996293;28;19933;-68
2023/03/30 10:26:47;;;;;;;;;;;;;;;-144.99;89.95;52291.16;4999889;28;19929;-66
2023/03/30 10:29:17;;;;;;;;;;;;;;;-144.99;88.04;52276.88;4996683;28;19933;-66
2023/03/30 10:31:44;;;;;;;;;;;;;;;-144.99;83.82;52266.69;4994958;28;20010;-67
2023/03/30 10:34:15;;;;;;;;;;;;;;;-144.99;82.55;52236.13;5000978;28;20342;-68
2023/03/30 10:36:46;;;;;;;;;;;;;;;-144.99;79.95;52272.81;5000068;28;19934;-67
2023/03/30 10:39:14;;;;;;;;;;;;;;;-144.99;76.40;52211.66;5008940;28;19933;-68
2023/03/30 10:41:41;;;;;;;;;;;;;;;-144.99;77.37;52325.81;5005693;28;19948;-67
2023/03/30 10:44:18;;;;;;;;;;;;;;;-144.99;78.79;52315.59;4999743;28;20008;-67
2023/03/30 10:46:45;;;;;;;;;;;;;;;-144.99;81.41;52346.19;5003083;28;20038;-68
2023/03/30 10:49:17;;;;;;;;;;;;;;;-144.99;82.33;52266.69;5003375;28;19929;-69
2023/03/30 10:51:53;;;;;;;;;;;;;;;-144.99;81.35;52342.09;5008387;28;19984;-67
2023/03/30 10:54:26;;;;;;;;;;;;;;;-144.99;81.05;52309.50;5016218;28;19953;-67
2023/03/30 10:56:54;;;;;;;;;;;;;;;-144.99;81.37;52338.03;5012387;28;19919;-67
2023/03/30 10:59:28;;;;;;;;;;;;;;;-144.99;82.24;52366.56;5018155;28;20354;-68
2023/03/30 11:02:01;;;;;;;;;;;;;;;-144.99;80.65;52317.66;5024923;28;20035;-68
2023/03/30 11:04:31;;;;;;;;;;;;;;;-144.99;79.97;52230.00;5019984;28;19983;-67
2023/03/30 11:07:01;;;;;;;;;;;;;;;-144.99;77.72;52301.34;5019025;28;20009;-66
2023/03/30 11:09:31;;;;;;;;;;;;;;;-144.99;76.08;52333.94;5014989;28;19929;-67
2023/03/30 11:12:00;;;;;;;;;;;;;;;-144.99;75.46;52211.66;5019298;28;20428;-66
2023/03/30 11:14:29;;;;;;;;;;;;;;;-144.99;74.10;52297.25;5018119;28;19976;-67
2023/03/30 11:16:59;;;;;;;;;;;;;;;-144.99;74.82;52301.34;5016959;28;19929;-66
2023/03/30 11:19:29;;;;;;;;;;;;;;;-144.99;75.28;52309.50;5022023;28;20020;-67
2023/03/30 11:22:00;;;;;;;;;;;;;;;-144.99;76.47;52391.03;5019861;28;19929;-67
2023/03/30 11:24:29;;;;;;;;;;;;;;;-144.99;81.35;52380.84;5019049;28;19929;-68
2023/03/30 11:26:59;;;;;;;;;;;;;;;-144.99;84.35;52395.09;5018735;28;19929;-67
2023/03/30 11:29:30;;;;;;;;;;;;;;;-144.99;84.58;52366.56;5024218;28;19937;-66
2023/03/30 11:32:03;;;;;;;;;;;;;;;-144.99;83.52;52391.03;5031878;28;19931;-66
2023/03/30 11:34:32;;;;;;;;;;;;;;;-144.99;84.06;52415.47;5031552;28;19929;-65
2023/03/30 11:37:02;;;;;;;;;;;;;;;-144.99;84.80;52411.41;5019636;28;19960;-67
2023/03/30 11:39:32;;;;;;;;;;;;;;;-144.99;84.40;52378.78;5025458;28;19975;-67
2023/03/30 11:42:02;;;;;;;;;;;;;;;-144.99;84.33;52411.41;5017268;28;19929;-67
2023/03/30 11:44:28;;;;;;;;;;;;;;;-144.99;85.37;52407.31;5015709;28;19988;-66
2023/03/30 11:47:00;;;;;;;;;;;;;;;-144.99;88.05;52376.75;5011426;28;19988;-68
2023/03/30 11:49:38;;;;;;;;;;;;;;;-144.99;100.00;52395.09;5018332;28;19925;-68
2023/03/30 11:52:11;;;;;;;;;;;;;;;-144.99;100.00;52397.13;5011879;28;20000;-68
2023/03/30 11:55:05;;;;;;;;;;;;;;;-144.99;100.00;52407.31;5013213;28;19925;-68
2023/03/30 11:57:37;;;;;;;;;;;;;;;-144.99;100.00;52435.88;4998675;28;19925;-68
2023/03/30 12:00:16;;;;;;;;;;;;;;;-144.99;100.00;52439.94;5010522;28;19961;-68
2023/03/30 12:02:47;;;;;;;;;;;;;;;-144.99;100.00;52391.03;5014783;28;20378;-68
2023/03/30 12:05:18;;;;;;;;;;;;;;;-144.99;100.00;52444.03;5019619;28;19930;-67
2023/03/30 12:07:49;;;;;;;;;;;;;;;-144.99;100.00;52427.72;5011961;28;20108;-66
2023/03/30 12:10:18;;;;;;;;;;;;;;;-144.99;100.00;52419.56;5016800;28;19972;-67
2023/03/30 12:12:48;;;;;;;;;;;;;;;-144.99;100.00;52411.41;5014963;28;19937;-70
2023/03/30 12:15:27;;;;;;;;;;;;;;;-144.99;100.00;52460.31;5018032;28;19995;-68
2023/03/30 12:17:56;;;;;;;;;;;;;;;-144.99;100.00;52452.16;5015774;28;19929;-67
2023/03/30 12:20:31;;;;;;;;;;;;;;;-144.99;100.00;52427.72;5014370;28;19929;-67
2023/03/30 12:23:01;;;;;;;;;;;;;;;-144.99;100.00;52435.88;5014728;28;20271;-69
2023/03/30 12:25:30;;;;;;;;;;;;;;;-144.99;99.75;52388.97;5015010;28;19932;-69
2023/03/30 12:27:59;;;;;;;;;;;;;;;-144.99;98.44;52386.94;5017257;28;19929;-69
2023/03/30 12:30:26;;;;;;;;;;;;;;;-144.99;96.82;52395.09;5007205;28;19931;-67